sensor_id;sensor_type;location;lat;lon;timestamp;pressure;altitude;pressure_sealevel;temperature;humidity
52927;BME280;40783;49.710;8.842;2023-03-20T00:02:21;99272.63;;;7.92;100.00
52927;BME280;40783;49.710;8.842;2023-03-20T00:04:46;99279.34;;;7.96;100.00
52927;BME280;40783;49.710;8.842;2023-03-20T00:07:14;99277.38;;;7.98;100.00
52927;BME280;40783;49.710;8.842;2023-03-20T00:09:39;99268.41;;;7.99;100.00
52927;BME280;40783;49.710;8.842;2023-03-20T00:12:04;99274.31;;;8.02;100.00
52927;BME280;40783;49.710;8.842;2023-03-20T00:14:30;99269.53;;;8.06;100.00
52927;BME280;40783;49.710;8.842;2023-03-20T00:16:55;99276.28;;;8.10;100.00
52927;BME280;40783;49.710;8.842;2023-03-20T00:19:25;99277.41;;;8.17;100.00
52927;BME280;40783;49.710;8.842;2023-03-20T00:21:53;99276.84;;;8.04;100.00
52927;BME280;40783;49.710;8.842;2023-03-20T00:24:19;99287.50;;;8.04;100.00
52927;BME280;40783;49.710;8.842;2023-03-20T00:26:44;99287.38;;;8.15;100.00
52927;BME280;40783;49.710;8.842;2023-03-20T00:29:20;99282.88;;;8.26;100.00
52927;BME280;40783;49.710;8.842;2023-03-20T00:31:46;99284.13;;;8.31;100.00
52927;BME280;40783;49.710;8.842;2023-03-20T00:34:14;99283.44;;;8.39;100.00
52927;BME280;40783;49.710;8.842;2023-03-20T00:36:40;99284.84;;;8.43;100.00
52927;BME280;40783;49.710;8.842;2023-03-20T00:39:05;99290.59;;;8.49;100.00
52927;BME280;40783;49.710;8.842;2023-03-20T00:44:27;99291.16;;;8.62;100.00
52927;BME280;40783;49.710;8.842;2023-03-20T00:46:54;99281.75;;;8.58;100.00
52927;BME280;40783;49.710;8.842;2023-03-20T00:49:22;99287.50;;;8.63;100.00
52927;BME280;40783;49.710;8.842;2023-03-20T00:51:48;99285.00;;;8.61;100.00
52927;BME280;40783;49.710;8.842;2023-03-20T00:54:14;99290.34;;;8.61;100.00
52927;BME280;40783;49.710;8.842;2023-03-20T00:56:41;99290.03;;;8.55;100.00
52927;BME280;40783;49.710;8.842;2023-03-20T00:59:08;99279.66;;;8.52;100.00
52927;BME280;40783;49.710;8.842;2023-03-20T01:01:38;99279.94;;;8.49;100.00
52927;BME280;40783;49.710;8.842;2023-03-20T01:04:24;99280.38;;;8.54;100.00
52927;BME280;40783;49.710;8.842;2023-03-20T01:06:54;99289.75;;;8.58;100.00
52927;BME280;40783;49.710;8.842;2023-03-20T01:09:21;99289.47;;;8.61;100.00
52927;BME280;40783;49.710;8.842;2023-03-20T01:11:47;99289.47;;;8.61;100.00
52927;BME280;40783;49.710;8.842;2023-03-20T01:14:14;99301.56;;;8.55;100.00
52927;BME280;40783;49.710;8.842;2023-03-20T01:16:40;99299.03;;;8.54;100.00
52927;BME280;40783;49.710;8.842;2023-03-20T01:19:05;99299.16;;;8.62;100.00
52927;BME280;40783;49.710;8.842;2023-03-20T01:21:31;99295.25;;;8.56;100.00
52927;BME280;40783;49.710;8.842;2023-03-20T01:23:58;99304.06;;;8.57;100.00
52927;BME280;40783;49.710;8.842;2023-03-20T01:26:31;99303.66;;;8.52;100.00
52927;BME280;40783;49.710;8.842;2023-03-20T01:28:57;99301.69;;;8.54;100.00
52927;BME280;40783;49.710;8.842;2023-03-20T01:31:22;99309.13;;;8.60;100.00
52927;BME280;40783;49.710;8.842;2023-03-20T01:33:47;99297.06;;;8.56;100.00
52927;BME280;40783;49.710;8.842;2023-03-20T01:36:16;99311.75;;;8.30;100.00
52927;BME280;40783;49.710;8.842;2023-03-20T01:38:44;99297.75;;;8.38;100.00
52927;BME280;40783;49.710;8.842;2023-03-20T01:41:15;99312.47;;;8.32;100.00
52927;BME280;40783;49.710;8.842;2023-03-20T01:43:44;99309.69;;;8.34;100.00
52927;BME280;40783;49.710;8.842;2023-03-20T01:46:19;99311.34;;;8.35;100.00
52927;BME280;40783;49.710;8.842;2023-03-20T01:53:41;99321.31;;;8.33;100.00
52927;BME280;40783;49.710;8.842;2023-03-20T01:56:06;99315.00;;;8.34;100.00
52927;BME280;40783;49.710;8.842;2023-03-20T01:58:36;99315.72;;;8.36;100.00
52927;BME280;40783;49.710;8.842;2023-03-20T02:01:03;99315.84;;;8.44;100.00
52927;BME280;40783;49.710;8.842;2023-03-20T02:03:30;99320.63;;;8.51;100.00
52927;BME280;40783;49.710;8.842;2023-03-20T02:05:59;99311.09;;;8.58;100.00
52927;BME280;40783;49.710;8.842;2023-03-20T02:08:26;99322.59;;;8.68;100.00
52927;BME280;40783;49.710;8.842;2023-03-20T02:10:52;99317.28;;;8.58;100.00
52927;BME280;40783;49.710;8.842;2023-03-20T02:13:20;99311.22;;;8.46;100.00
52927;BME280;40783;49.710;8.842;2023-03-20T02:15:56;99314.31;;;8.52;100.00
52927;BME280;40783;49.710;8.842;2023-03-20T02:18:21;99308.28;;;8.50;100.00
52927;BME280;40783;49.710;8.842;2023-03-20T02:38:43;99308.00;;;8.33;100.00
52927;BME280;40783;49.710;8.842;2023-03-20T02:43:51;99313.31;;;8.33;100.00
52927;BME280;40783;49.710;8.842;2023-03-20T02:46:30;99313.31;;;8.33;100.00
52927;BME280;40783;49.710;8.842;2023-03-20T02:51:39;99325.38;;;8.17;100.00
52927;BME280;40783;49.710;8.842;2023-03-20T02:54:12;99322.84;;;8.26;100.00
52927;BME280;40783;49.710;8.842;2023-03-20T02:59:18;99312.91;;;8.28;100.00
52927;BME280;40783;49.710;8.842;2023-03-20T03:01:46;99323.13;;;8.32;100.00
52927;BME280;40783;49.710;8.842;2023-03-20T03:04:17;99323.28;;;8.41;100.00
52927;BME280;40783;49.710;8.842;2023-03-20T03:06:43;99324.84;;;8.43;100.00
52927;BME280;40783;49.710;8.842;2023-03-20T03:09:13;99332.66;;;8.45;100.00
52927;BME280;40783;49.710;8.842;2023-03-20T03:11:43;99328.19;;;8.45;100.00
52927;BME280;40783;49.710;8.842;2023-03-20T03:14:13;99325.66;;;8.44;100.00
52927;BME280;40783;49.710;8.842;2023-03-20T03:16:39;99327.34;;;8.35;100.00
52927;BME280;40783;49.710;8.842;2023-03-20T03:21:31;99325.13;;;8.40;100.00
52927;BME280;40783;49.710;8.842;2023-03-20T03:23:57;99328.47;;;8.23;100.00
52927;BME280;40783;49.710;8.842;2023-03-20T03:26:24;99329.28;;;8.13;100.00
52927;BME280;40783;49.710;8.842;2023-03-20T03:28:53;99334.88;;;8.10;100.00
52927;BME280;40783;49.710;8.842;2023-03-20T03:31:20;99342.16;;;8.08;100.00
52927;BME280;40783;49.710;8.842;2023-03-20T03:33:48;99333.63;;;8.14;100.00
52927;BME280;40783;49.710;8.842;2023-03-20T03:46:44;99333.34;;;8.17;100.00
52927;BME280;40783;49.710;8.842;2023-03-20T03:48:55;99335.03;;;8.19;100.00
52927;BME280;40783;49.710;8.842;2023-03-20T03:51:22;99335.75;;;8.21;100.00
52927;BME280;40783;49.710;8.842;2023-03-20T03:53:51;99342.75;;;8.22;100.00
52927;BME280;40783;49.710;8.842;2023-03-20T03:56:19;99337.69;;;8.19;100.00
52927;BME280;40783;49.710;8.842;2023-03-20T03:58:47;99344.00;;;8.27;100.00
52927;BME280;40783;49.710;8.842;2023-03-20T04:01:13;99333.22;;;8.29;100.00
52927;BME280;40783;49.710;8.842;2023-03-20T04:03:45;99341.66;;;8.34;100.00
52927;BME280;40783;49.710;8.842;2023-03-20T04:06:12;99338.44;;;8.40;100.00
52927;BME280;40783;49.710;8.842;2023-03-20T04:08:42;99345.00;;;8.26;100.00
52927;BME280;40783;49.710;8.842;2023-03-20T04:11:11;99346.97;;;8.34;100.00
52927;BME280;40783;49.710;8.842;2023-03-20T04:13:38;99356.22;;;8.30;100.00
52927;BME280;40783;49.710;8.842;2023-03-20T04:16:03;99349.22;;;8.29;100.00
52927;BME280;40783;49.710;8.842;2023-03-20T04:18:32;99356.50;;;8.27;100.00
52927;BME280;40783;49.710;8.842;2023-03-20T04:20:57;99351.72;;;8.21;100.00
52927;BME280;40783;49.710;8.842;2023-03-20T04:23:24;99367.44;;;8.24;100.00
52927;BME280;40783;49.710;8.842;2023-03-20T04:25:50;99362.94;;;8.14;100.00
52927;BME280;40783;49.710;8.842;2023-03-20T04:28:15;99368.00;;;8.17;100.00
52927;BME280;40783;49.710;8.842;2023-03-20T04:30:40;99363.78;;;8.25;100.00
52927;BME280;40783;49.710;8.842;2023-03-20T04:33:08;99358.75;;;8.31;100.00
52927;BME280;40783;49.710;8.842;2023-03-20T04:35:33;99362.09;;;8.24;100.00
52927;BME280;40783;49.710;8.842;2023-03-20T04:38:00;99364.78;;;8.24;100.00
52927;BME280;40783;49.710;8.842;2023-03-20T04:40:26;99369.13;;;8.25;100.00
52927;BME280;40783;49.710;8.842;2023-03-20T04:42:52;99365.22;;;8.29;100.00
52927;BME280;40783;49.710;8.842;2023-03-20T04:45:17;99367.44;;;8.24;100.00
52927;BME280;40783;49.710;8.842;2023-03-20T04:47:42;99358.47;;;8.25;100.00
52927;BME280;40783;49.710;8.842;2023-03-20T04:50:08;99362.00;;;8.35;100.00
52927;BME280;40783;49.710;8.842;2023-03-20T04:52:35;99357.91;;;8.31;100.00
52927;BME280;40783;49.710;8.842;2023-03-20T04:55:03;99359.75;;;8.40;100.00
52927;BME280;40783;49.710;8.842;2023-03-20T04:57:28;99367.19;;;8.46;100.00
52927;BME280;40783;49.710;8.842;2023-03-20T04:59:55;99359.34;;;8.55;100.00
52927;BME280;40783;49.710;8.842;2023-03-20T05:02:23;99358.09;;;8.59;100.00
52927;BME280;40783;49.710;8.842;2023-03-20T05:04:51;99366.09;;;8.59;100.00
52927;BME280;40783;49.710;8.842;2023-03-20T05:07:16;99369.44;;;8.61;100.00
52927;BME280;40783;49.710;8.842;2023-03-20T05:09:41;99370.84;;;8.65;100.00
52927;BME280;40783;49.710;8.842;2023-03-20T05:12:07;99375.22;;;8.66;100.00
52927;BME280;40783;49.710;8.842;2023-03-20T05:14:33;99372.13;;;8.61;100.00
52927;BME280;40783;49.710;8.842;2023-03-20T05:16:58;99378.44;;;8.60;100.00
52927;BME280;40783;49.710;8.842;2023-03-20T05:19:25;99378.44;;;8.60;100.00
52927;BME280;40783;49.710;8.842;2023-03-20T05:21:53;99377.19;;;8.54;100.00
52927;BME280;40783;49.710;8.842;2023-03-20T05:24:18;99382.63;;;8.53;100.00
52927;BME280;40783;49.710;8.842;2023-03-20T05:26:43;99384.03;;;8.57;100.00
52927;BME280;40783;49.710;8.842;2023-03-20T05:29:09;99388.81;;;8.63;100.00
52927;BME280;40783;49.710;8.842;2023-03-20T05:31:34;99386.72;;;8.57;100.00
52927;BME280;40783;49.710;8.842;2023-03-20T05:34:00;99386.00;;;8.55;100.00
52927;BME280;40783;49.710;8.842;2023-03-20T05:36:25;99376.88;;;8.48;100.00
52927;BME280;40783;49.710;8.842;2023-03-20T05:38:51;99383.50;;;8.53;100.00
52927;BME280;40783;49.710;8.842;2023-03-20T05:41:18;99382.63;;;8.53;100.00
52927;BME280;40783;49.710;8.842;2023-03-20T05:43:43;99378.69;;;8.37;100.00
52927;BME280;40783;49.710;8.842;2023-03-20T05:46:09;99373.47;;;8.36;100.00
52927;BME280;40783;49.710;8.842;2023-03-20T05:48:36;99378.69;;;8.37;100.00
52927;BME280;40783;49.710;8.842;2023-03-20T05:51:02;99378.41;;;8.40;100.00
52927;BME280;40783;49.710;8.842;2023-03-20T05:53:29;99376.44;;;8.42;100.00
52927;BME280;40783;49.710;8.842;2023-03-20T05:55:55;99385.16;;;8.44;100.00
52927;BME280;40783;49.710;8.842;2023-03-20T05:58:20;99376.91;;;8.57;100.00
52927;BME280;40783;49.710;8.842;2023-03-20T06:00:45;99364.13;;;8.61;100.00
52927;BME280;40783;49.710;8.842;2023-03-20T06:03:13;99357.09;;;8.60;100.00
52927;BME280;40783;49.710;8.842;2023-03-20T06:05:38;99361.19;;;8.64;100.00
52927;BME280;40783;49.710;8.842;2023-03-20T06:08:03;99361.59;;;8.69;100.00
52927;BME280;40783;49.710;8.842;2023-03-20T06:10:29;99373.38;;;8.76;100.00
52927;BME280;40783;49.710;8.842;2023-03-20T06:12:55;99381.53;;;8.85;100.00
52927;BME280;40783;49.710;8.842;2023-03-20T06:15:21;99386.03;;;8.94;100.00
52927;BME280;40783;49.710;8.842;2023-03-20T06:17:46;99377.84;;;8.96;100.00
52927;BME280;40783;49.710;8.842;2023-03-20T06:20:11;99377.28;;;9.02;100.00
52927;BME280;40783;49.710;8.842;2023-03-20T06:22:36;99390.78;;;9.00;100.00
52927;BME280;40783;49.710;8.842;2023-03-20T06:25:02;99398.50;;;8.94;100.00
52927;BME280;40783;49.710;8.842;2023-03-20T06:27:27;99400.63;;;8.90;100.00
52927;BME280;40783;49.710;8.842;2023-03-20T06:29:57;99389.38;;;8.96;100.00
52927;BME280;40783;49.710;8.842;2023-03-20T06:32:22;99394.16;;;8.83;100.00
52927;BME280;40783;49.710;8.842;2023-03-20T06:34:47;99388.81;;;8.93;100.00
52927;BME280;40783;49.710;8.842;2023-03-20T06:37:13;99398.66;;;8.92;100.00
52927;BME280;40783;49.710;8.842;2023-03-20T06:39:40;99399.22;;;8.86;100.00
52927;BME280;40783;49.710;8.842;2023-03-20T06:42:05;99401.31;;;8.92;100.00
52927;BME280;40783;49.710;8.842;2023-03-20T06:44:33;99402.03;;;8.94;100.00
52927;BME280;40783;49.710;8.842;2023-03-20T06:47:01;99403.09;;;9.01;100.00
52927;BME280;40783;49.710;8.842;2023-03-20T06:49:28;99407.88;;;9.08;100.00
52927;BME280;40783;49.710;8.842;2023-03-20T06:51:54;99410.13;;;9.02;100.00
52927;BME280;40783;49.710;8.842;2023-03-20T06:54:19;99408.16;;;9.04;100.00
52927;BME280;40783;49.710;8.842;2023-03-20T06:56:47;99407.88;;;9.08;100.00
52927;BME280;40783;49.710;8.842;2023-03-20T06:59:12;99415.78;;;8.99;100.00
52927;BME280;40783;49.710;8.842;2023-03-20T07:01:37;99417.75;;;8.97;100.00
52927;BME280;40783;49.710;8.842;2023-03-20T07:04:03;99419.13;;;9.01;100.00
52927;BME280;40783;49.710;8.842;2023-03-20T07:06:28;99419.13;;;8.91;100.00
52927;BME280;40783;49.710;8.842;2023-03-20T07:08:53;99422.06;;;8.88;100.00
52927;BME280;40783;49.710;8.842;2023-03-20T07:11:18;99416.47;;;8.82;100.00
52927;BME280;40783;49.710;8.842;2023-03-20T07:13:44;99414.66;;;8.72;100.00
52927;BME280;40783;49.710;8.842;2023-03-20T07:16:09;99425.03;;;8.66;100.00
52927;BME280;40783;49.710;8.842;2023-03-20T07:18:34;99423.06;;;8.78;100.00
52927;BME280;40783;49.710;8.842;2023-03-20T07:21:03;99430.09;;;8.79;100.00
52927;BME280;40783;49.710;8.842;2023-03-20T07:23:29;99426.72;;;8.76;100.00
52927;BME280;40783;49.710;8.842;2023-03-20T07:25:54;99436.53;;;8.76;100.00
52927;BME280;40783;49.710;8.842;2023-03-20T07:28:20;99428.41;;;8.78;100.00
52927;BME280;40783;49.710;8.842;2023-03-20T07:30:45;99421.94;;;8.60;100.00
52927;BME280;40783;49.710;8.842;2023-03-20T07:33:10;99425.59;;;8.69;100.00
52927;BME280;40783;49.710;8.842;2023-03-20T07:35:38;99429.09;;;8.60;100.00
52927;BME280;40783;49.710;8.842;2023-03-20T07:38:05;99427.81;;;8.64;100.00
52927;BME280;40783;49.710;8.842;2023-03-20T07:40:31;99422.50;;;8.64;100.00
52927;BME280;40783;49.710;8.842;2023-03-20T07:42:56;99424.75;;;8.79;100.00
52927;BME280;40783;49.710;8.842;2023-03-20T07:45:25;99421.09;;;8.89;100.00
52927;BME280;40783;49.710;8.842;2023-03-20T07:47:50;99425.88;;;8.86;100.00
52927;BME280;40783;49.710;8.842;2023-03-20T07:50:15;99425.88;;;8.86;100.00
52927;BME280;40783;49.710;8.842;2023-03-20T07:52:45;99424.63;;;8.90;100.00
52927;BME280;40783;49.710;8.842;2023-03-20T07:55:13;99436.28;;;8.89;100.00
52927;BME280;40783;49.710;8.842;2023-03-20T07:57:38;99435.28;;;8.90;100.00
52927;BME280;40783;49.710;8.842;2023-03-20T08:00:03;99434.88;;;8.85;100.00
52927;BME280;40783;49.710;8.842;2023-03-20T08:02:29;99431.09;;;8.97;100.00
52927;BME280;40783;49.710;8.842;2023-03-20T08:04:54;99434.13;;;9.02;100.00
52927;BME280;40783;49.710;8.842;2023-03-20T08:07:20;99437.81;;;9.11;100.00
52927;BME280;40783;49.710;8.842;2023-03-20T08:09:45;99435.41;;;9.18;100.00
52927;BME280;40783;49.710;8.842;2023-03-20T08:12:10;99438.34;;;9.15;100.00
52927;BME280;40783;49.710;8.842;2023-03-20T08:14:38;99440.44;;;9.21;100.00
52927;BME280;40783;49.710;8.842;2023-03-20T08:17:03;99437.91;;;9.29;100.00
52927;BME280;40783;49.710;8.842;2023-03-20T08:19:29;99435.94;;;9.31;100.00
52927;BME280;40783;49.710;8.842;2023-03-20T08:21:54;99436.81;;;9.22;100.00
52927;BME280;40783;49.710;8.842;2023-03-20T08:24:19;99440.31;;;9.13;100.00
52927;BME280;40783;49.710;8.842;2023-03-20T08:26:44;99444.38;;;9.17;100.00
52927;BME280;40783;49.710;8.842;2023-03-20T08:29:10;99449.72;;;9.17;100.00
52927;BME280;40783;49.710;8.842;2023-03-20T08:31:38;99448.75;;;9.18;100.00
52927;BME280;40783;49.710;8.842;2023-03-20T08:34:03;99449.44;;;9.20;100.00
52927;BME280;40783;49.710;8.842;2023-03-20T08:36:28;99443.53;;;9.06;100.00
52927;BME280;40783;49.710;8.842;2023-03-20T08:38:53;99443.25;;;9.10;100.00
52927;BME280;40783;49.710;8.842;2023-03-20T08:41:19;99441.72;;;9.17;100.00
52927;BME280;40783;49.710;8.842;2023-03-20T08:43:45;99446.81;;;9.00;100.00
52927;BME280;40783;49.710;8.842;2023-03-20T08:46:11;99452.53;;;9.05;100.00
52927;BME280;40783;49.710;8.842;2023-03-20T08:48:36;99450.28;;;9.11;100.00
52927;BME280;40783;49.710;8.842;2023-03-20T08:51:02;99457.03;;;9.15;100.00
52927;BME280;40783;49.710;8.842;2023-03-20T08:53:27;99463.22;;;9.25;100.00
52927;BME280;40783;49.710;8.842;2023-03-20T08:55:52;99464.03;;;9.35;100.00
52927;BME280;40783;49.710;8.842;2023-03-20T08:58:18;99466.97;;;9.42;100.00
52927;BME280;40783;49.710;8.842;2023-03-20T09:00:46;99457.88;;;9.25;100.00
52927;BME280;40783;49.710;8.842;2023-03-20T09:03:14;99467.81;;;9.43;100.00
52927;BME280;40783;49.710;8.842;2023-03-20T09:05:44;99466.56;;;9.47;100.00
52927;BME280;40783;49.710;8.842;2023-03-20T09:08:12;99472.16;;;9.34;100.00
52927;BME280;40783;49.710;8.842;2023-03-20T09:10:38;99470.19;;;9.36;100.00
52927;BME280;40783;49.710;8.842;2023-03-20T09:13:04;99469.50;;;9.44;100.00
52927;BME280;40783;49.710;8.842;2023-03-20T09:15:30;99474.44;;;9.39;100.00
52927;BME280;40783;49.710;8.842;2023-03-20T09:17:58;99470.50;;;9.43;100.00
52927;BME280;40783;49.710;8.842;2023-03-20T09:20:25;99473.59;;;9.28;100.00
52927;BME280;40783;49.710;8.842;2023-03-20T09:22:50;99476.09;;;9.30;100.00
52927;BME280;40783;49.710;8.842;2023-03-20T09:25:16;99479.50;;;9.42;100.00
52927;BME280;40783;49.710;8.842;2023-03-20T09:27:41;99476.53;;;9.45;100.00
52927;BME280;40783;49.710;8.842;2023-03-20T09:30:07;99482.00;;;9.43;100.00
52927;BME280;40783;49.710;8.842;2023-03-20T09:32:34;99482.72;;;9.35;100.00
52927;BME280;40783;49.710;8.842;2023-03-20T09:35:00;99495.50;;;9.42;100.00
52927;BME280;40783;49.710;8.842;2023-03-20T09:37:26;99494.66;;;9.31;100.00
52927;BME280;40783;49.710;8.842;2023-03-20T09:39:53;99495.06;;;9.46;100.00
52927;BME280;40783;49.710;8.842;2023-03-20T09:52:31;99494.03;;;9.77;100.00
52927;BME280;40783;49.710;8.842;2023-03-20T09:55:05;99497.13;;;9.72;100.00
52927;BME280;40783;49.710;8.842;2023-03-20T09:57:40;99505.84;;;9.64;100.00
52927;BME280;40783;49.710;8.842;2023-03-20T10:00:13;99501.50;;;9.73;100.00
52927;BME280;40783;49.710;8.842;2023-03-20T10:02:59;99506.97;;;9.72;100.00
52927;BME280;40783;49.710;8.842;2023-03-20T10:05:26;99507.53;;;9.65;100.00
52927;BME280;40783;49.710;8.842;2023-03-20T10:07:57;99508.53;;;9.64;100.00
52927;BME280;40783;49.710;8.842;2023-03-20T10:10:26;99509.00;;;9.50;100.00
52927;BME280;40783;49.710;8.842;2023-03-20T10:12:58;99507.59;;;9.46;100.00
52927;BME280;40783;49.710;8.842;2023-03-20T10:15:29;99502.75;;;9.59;100.00
52927;BME280;40783;49.710;8.842;2023-03-20T10:18:36;99503.59;;;9.70;100.00
52927;BME280;40783;49.710;8.842;2023-03-20T10:23:38;99507.09;;;9.80;100.00
52927;BME280;40783;49.710;8.842;2023-03-20T10:26:06;99508.06;;;9.79;100.00
52927;BME280;40783;49.710;8.842;2023-03-20T10:28:39;99510.75;;;9.79;100.00
52927;BME280;40783;49.710;8.842;2023-03-20T10:31:51;99504.41;;;9.80;100.00
52927;BME280;40783;49.710;8.842;2023-03-20T10:34:02;99512.78;;;10.05;100.00
52927;BME280;40783;49.710;8.842;2023-03-20T10:36:35;99502.00;;;10.24;100.00
52927;BME280;40783;49.710;8.842;2023-03-20T10:41:39;99502.69;;;9.99;100.00
52927;BME280;40783;49.710;8.842;2023-03-20T10:44:09;99496.81;;;9.85;100.00
52927;BME280;40783;49.710;8.842;2023-03-20T10:46:41;99494.81;;;9.97;100.00
52927;BME280;40783;49.710;8.842;2023-03-20T10:54:05;99491.22;;;10.72;100.00
52927;BME280;40783;49.710;8.842;2023-03-20T10:56:36;99498.34;;;10.81;100.00
52927;BME280;40783;49.710;8.842;2023-03-20T10:59:09;99495.28;;;10.76;100.00
52927;BME280;40783;49.710;8.842;2023-03-20T11:01:38;99490.53;;;10.70;100.00
52927;BME280;40783;49.710;8.842;2023-03-20T11:04:04;99488.13;;;10.95;100.00
52927;BME280;40783;49.710;8.842;2023-03-20T11:06:32;99480.31;;;11.20;100.00
52927;BME280;40783;49.710;8.842;2023-03-20T11:09:09;99483.44;;;11.15;100.00
52927;BME280;40783;49.710;8.842;2023-03-20T11:11:38;99481.66;;;11.24;100.00
52927;BME280;40783;49.710;8.842;2023-03-20T11:14:09;99475.34;;;11.07;100.00
52927;BME280;40783;49.710;8.842;2023-03-20T11:16:42;99482.28;;;11.18;100.00
52927;BME280;40783;49.710;8.842;2023-03-20T11:19:11;99475.91;;;11.10;100.00
52927;BME280;40783;49.710;8.842;2023-03-20T11:21:43;99473.44;;;10.99;100.00
52927;BME280;40783;49.710;8.842;2023-03-20T11:24:21;99473.56;;;11.16;100.00
52927;BME280;40783;49.710;8.842;2023-03-20T11:26:48;99470.59;;;11.63;100.00
52927;BME280;40783;49.710;8.842;2023-03-20T11:29:34;99473.00;;;11.75;100.00
52927;BME280;40783;49.710;8.842;2023-03-20T11:32:06;99471.13;;;11.67;100.00
52927;BME280;40783;49.710;8.842;2023-03-20T11:34:35;99453.97;;;11.33;100.00
52927;BME280;40783;49.710;8.842;2023-03-20T11:37:00;99454.03;;;11.41;100.00
52927;BME280;40783;49.710;8.842;2023-03-20T11:39:30;99445.81;;;11.35;100.00
52927;BME280;40783;49.710;8.842;2023-03-20T11:41:59;99458.09;;;11.46;100.00
52927;BME280;40783;49.710;8.842;2023-03-20T11:44:29;99454.84;;;11.60;100.00
52927;BME280;40783;49.710;8.842;2023-03-20T11:47:04;99465.97;;;11.73;100.00
52927;BME280;40783;49.710;8.842;2023-03-20T11:49:30;99455.97;;;11.84;100.00
52927;BME280;40783;49.710;8.842;2023-03-20T11:51:59;99451.84;;;11.98;100.00
52927;BME280;40783;49.710;8.842;2023-03-20T11:54:26;99441.75;;;12.10;100.00
52927;BME280;40783;49.710;8.842;2023-03-20T11:56:56;99448.09;;;12.09;100.00
52927;BME280;40783;49.710;8.842;2023-03-20T11:59:24;99446.00;;;11.94;100.00
52927;BME280;40783;49.710;8.842;2023-03-20T12:01:51;99438.75;;;11.86;100.00
52927;BME280;40783;49.710;8.842;2023-03-20T12:04:33;99437.16;;;11.76;100.00
52927;BME280;40783;49.710;8.842;2023-03-20T12:07:10;99430.22;;;11.91;100.00
52927;BME280;40783;49.710;8.842;2023-03-20T12:09:46;99430.19;;;11.83;100.00
52927;BME280;40783;49.710;8.842;2023-03-20T12:19:52;99419.72;;;11.71;100.00
52927;BME280;40783;49.710;8.842;2023-03-20T12:22:21;99416.78;;;11.83;100.00
52927;BME280;40783;49.710;8.842;2023-03-20T12:24:55;99408.66;;;11.66;100.00
52927;BME280;40783;49.710;8.842;2023-03-20T12:29:57;99419.03;;;11.61;100.00
52927;BME280;40783;49.710;8.842;2023-03-20T12:34:51;99417.03;;;11.63;100.00
52927;BME280;40783;49.710;8.842;2023-03-20T12:37:17;99408.06;;;11.81;100.00
52927;BME280;40783;49.710;8.842;2023-03-20T12:39:48;99407.44;;;11.87;100.00
52927;BME280;40783;49.710;8.842;2023-03-20T12:50:06;99395.06;;;12.37;100.00
52927;BME280;40783;49.710;8.842;2023-03-20T12:52:55;99398.91;;;12.35;100.00
52927;BME280;40783;49.710;8.842;2023-03-20T13:10:21;99381.22;;;12.91;100.00
52927;BME280;40783;49.710;8.842;2023-03-20T13:17:43;99377.53;;;12.68;100.00
52927;BME280;40783;49.710;8.842;2023-03-20T13:22:53;99373.16;;;12.75;100.00
52927;BME280;40783;49.710;8.842;2023-03-20T13:25:35;99368.47;;;12.69;100.00
52927;BME280;40783;49.710;8.842;2023-03-20T13:28:29;99353.69;;;12.73;100.00
52927;BME280;40783;49.710;8.842;2023-03-20T13:31:05;99367.25;;;12.55;100.00
52927;BME280;40783;49.710;8.842;2023-03-20T13:33:46;99364.44;;;12.56;100.00
52927;BME280;40783;49.710;8.842;2023-03-20T13:36:17;99360.56;;;12.59;100.00
52927;BME280;40783;49.710;8.842;2023-03-20T13:38:49;99349.31;;;12.47;100.00
52927;BME280;40783;49.710;8.842;2023-03-20T13:41:19;99357.34;;;12.39;100.00
52927;BME280;40783;49.710;8.842;2023-03-20T13:43:47;99347.94;;;12.26;100.00
52927;BME280;40783;49.710;8.842;2023-03-20T13:46:23;99343.63;;;12.42;100.00
52927;BME280;40783;49.710;8.842;2023-03-20T13:48:52;99348.63;;;12.37;100.00
52927;BME280;40783;49.710;8.842;2023-03-20T13:51:34;99337.38;;;12.16;100.00
52927;BME280;40783;49.710;8.842;2023-03-20T13:59:24;99342.88;;;12.07;100.00
52927;BME280;40783;49.710;8.842;2023-03-20T14:04:21;99336.53;;;12.16;100.00
52927;BME280;40783;49.710;8.842;2023-03-20T14:06:53;99323.47;;;12.13;100.00
52927;BME280;40783;49.710;8.842;2023-03-20T14:09:32;99322.78;;;12.11;100.00
52927;BME280;40783;49.710;8.842;2023-03-20T14:14:30;99318.09;;;12.13;100.00
52927;BME280;40783;49.710;8.842;2023-03-20T14:17:41;99316.16;;;11.97;100.00
52927;BME280;40783;49.710;8.842;2023-03-20T14:19:49;99307.28;;;11.88;100.00
52927;BME280;40783;49.710;8.842;2023-03-20T14:22:16;99307.00;;;11.99;100.00
52927;BME280;40783;49.710;8.842;2023-03-20T14:24:45;99310.72;;;12.07;100.00
52927;BME280;40783;49.710;8.842;2023-03-20T14:27:16;99313.09;;;12.18;100.00
52927;BME280;40783;49.710;8.842;2023-03-20T14:29:42;99312.25;;;12.17;100.00
52927;BME280;40783;49.710;8.842;2023-03-20T14:34:45;99310.41;;;12.18;100.00
52927;BME280;40783;49.710;8.842;2023-03-20T14:37:25;99310.06;;;12.21;98.74
52927;BME280;40783;49.710;8.842;2023-03-20T14:40:35;99309.09;;;12.39;98.26
52927;BME280;40783;49.710;8.842;2023-03-20T14:47:57;99306.38;;;12.30;98.70
52927;BME280;40783;49.710;8.842;2023-03-20T15:04:30;99298.31;;;12.22;95.76
52927;BME280;40783;49.710;8.842;2023-03-20T15:06:30;99292.63;;;12.25;95.14
52927;BME280;40783;49.710;8.842;2023-03-20T15:08:58;99287.13;;;12.35;91.95
52927;BME280;40783;49.710;8.842;2023-03-20T15:11:23;99288.63;;;12.46;92.70
52927;BME280;40783;49.710;8.842;2023-03-20T15:13:49;99291.31;;;12.46;86.81
52927;BME280;40783;49.710;8.842;2023-03-20T15:16:24;99291.66;;;12.51;81.24
52927;BME280;40783;49.710;8.842;2023-03-20T15:18:52;99295.19;;;12.43;82.28
52927;BME280;40783;49.710;8.842;2023-03-20T15:21:37;99296.00;;;12.36;81.03
52927;BME280;40783;49.710;8.842;2023-03-20T15:24:03;99289.63;;;12.37;79.35
52927;BME280;40783;49.710;8.842;2023-03-20T15:26:29;99290.66;;;12.44;78.46